createdAt,value
2019-01-20T00:00:51.964Z,29.80
2019-01-20T00:03:22.367Z,26.85
2019-01-20T00:05:52.219Z,21.57
2019-01-20T00:08:22.695Z,20.68
2019-01-20T00:10:53.135Z,21.23
2019-01-20T00:13:22.983Z,19.90
2019-01-20T00:15:53.528Z,22.65
2019-01-20T00:18:23.958Z,21.05
2019-01-20T00:20:54.407Z,19.90
2019-01-20T00:23:25.098Z,24.82
2019-01-20T00:25:55.588Z,24.87
2019-01-20T00:28:25.835Z,22.00
2019-01-20T00:30:55.593Z,24.18
2019-01-20T00:33:26.072Z,23.18
2019-01-20T00:35:56.555Z,23.38
2019-01-20T00:38:27.159Z,21.85
2019-01-20T00:40:57.739Z,25.97
2019-01-20T00:43:27.483Z,24.27
2019-01-20T00:45:57.879Z,26.40
2019-01-20T00:48:28.357Z,24.63
2019-01-20T00:50:58.596Z,22.70
2019-01-20T00:53:29.016Z,24.65
2019-01-20T00:55:59.410Z,24.57
2019-01-20T00:58:29.799Z,23.87
2019-01-20T01:01:00.105Z,24.67
2019-01-20T01:03:30.679Z,26.97
2019-01-20T01:06:01.159Z,25.10
2019-01-20T01:08:31.564Z,27.48
2019-01-20T01:11:02.072Z,34.55
2019-01-20T01:13:32.563Z,31.23
2019-01-20T01:16:02.162Z,32.78
2019-01-20T01:18:31.783Z,35.00
2019-01-20T01:21:02.140Z,31.77
2019-01-20T01:23:32.689Z,30.27
2019-01-20T01:26:03.238Z,32.67
2019-01-20T01:28:33.763Z,33.70
2019-01-20T01:31:04.212Z,33.63
2019-01-20T01:33:34.623Z,33.78
2019-01-20T01:36:05.210Z,35.15
2019-01-20T01:38:35.820Z,32.67
2019-01-20T01:41:06.308Z,29.32
2019-01-20T01:43:36.555Z,30.40
2019-01-20T01:46:06.957Z,28.77
2019-01-20T01:48:37.511Z,30.50
2019-01-20T01:51:07.910Z,24.18
2019-01-20T01:53:38.297Z,31.85
2019-01-20T01:56:08.631Z,27.35
2019-01-20T01:58:38.991Z,29.95
2019-01-20T02:01:09.507Z,27.87
2019-01-20T02:03:40.192Z,29.23
2019-01-20T02:06:10.735Z,31.48
2019-01-20T02:08:41.139Z,29.92
2019-01-20T02:11:11.527Z,24.37
2019-01-20T02:13:42.096Z,32.65
2019-01-20T02:16:12.396Z,30.95
2019-01-20T02:18:42.855Z,29.67
2019-01-20T02:21:13.193Z,28.32
2019-01-20T02:23:43.683Z,21.85
2019-01-20T02:26:13.954Z,33.05
2019-01-20T02:28:44.632Z,32.67
2019-01-20T02:31:14.928Z,29.90
2019-01-20T02:33:45.380Z,31.20
2019-01-20T02:36:15.691Z,29.90
2019-01-20T02:38:46.196Z,29.87
2019-01-20T02:41:16.704Z,28.27
2019-01-20T02:43:47.191Z,26.00
2019-01-20T02:46:17.628Z,30.02
2019-01-20T02:48:48.438Z,30.32
2019-01-20T02:51:19.479Z,30.85
2019-01-20T02:53:49.893Z,30.23
2019-01-20T02:56:20.459Z,30.35
2019-01-20T02:58:50.904Z,31.23
2019-01-20T03:01:21.182Z,32.05
2019-01-20T03:03:51.566Z,32.00
2019-01-20T03:06:22.059Z,38.23
2019-01-20T03:08:52.339Z,40.55
2019-01-20T03:11:22.787Z,37.98
2019-01-20T03:13:53.360Z,43.20
2019-01-20T03:16:23.805Z,40.92
2019-01-20T03:18:54.239Z,33.28
2019-01-20T03:21:24.594Z,35.08
2019-01-20T03:23:55.065Z,36.63
2019-01-20T03:26:25.447Z,33.95
2019-01-20T03:28:55.832Z,30.60
2019-01-20T03:31:26.132Z,31.82
2019-01-20T03:33:56.609Z,31.02
2019-01-20T03:36:27.082Z,35.10
2019-01-20T03:38:57.492Z,33.45
2019-01-20T03:41:27.820Z,33.00
2019-01-20T03:43:58.227Z,34.18
2019-01-20T03:46:28.688Z,36.93
2019-01-20T03:48:59.018Z,34.40
2019-01-20T03:51:29.507Z,33.13
2019-01-20T03:53:59.955Z,33.23
2019-01-20T03:56:29.771Z,30.95
2019-01-20T03:59:00.225Z,28.87
2019-01-20T04:01:30.725Z,29.75
2019-01-20T04:04:01.164Z,31.80
2019-01-20T04:06:31.369Z,28.55
2019-01-20T04:09:01.799Z,29.85
2019-01-20T04:11:32.199Z,32.70
2019-01-20T04:14:02.575Z,32.45
2019-01-20T04:16:33.068Z,33.85
2019-01-20T04:19:03.698Z,34.25
2019-01-20T04:21:34.215Z,33.15
2019-01-20T04:24:04.733Z,32.85
2019-01-20T04:26:35.116Z,33.33
2019-01-20T04:29:05.540Z,34.35
2019-01-20T04:34:29.957Z,32.00
2019-01-20T04:37:00.352Z,31.07
2019-01-20T04:39:30.734Z,33.28
2019-01-20T04:42:01.129Z,32.60
2019-01-20T04:44:31.826Z,30.43
2019-01-20T04:47:02.075Z,34.88
2019-01-20T04:49:32.367Z,33.75
2019-01-20T04:52:02.737Z,34.45
2019-01-20T04:54:33.242Z,34.33
2019-01-20T04:57:03.654Z,34.08
2019-01-20T04:59:34.101Z,32.60
2019-01-20T05:02:04.611Z,35.80
2019-01-20T05:04:34.413Z,35.75
2019-01-20T05:07:04.646Z,33.08
2019-01-20T05:09:34.951Z,28.02
2019-01-20T05:12:05.460Z,30.88
2019-01-20T05:14:35.879Z,35.50
2019-01-20T05:17:06.751Z,35.25
2019-01-20T05:19:37.188Z,33.40
2019-01-20T05:22:07.746Z,36.83
2019-01-20T05:24:38.015Z,36.68
2019-01-20T05:27:08.731Z,38.85
2019-01-20T05:29:39.283Z,38.28
2019-01-20T05:32:09.823Z,41.55
2019-01-20T05:34:40.250Z,40.90
2019-01-20T05:37:10.615Z,41.20
2019-01-20T05:39:41.145Z,47.55
2019-01-20T05:42:11.827Z,46.45
2019-01-20T05:44:42.146Z,43.48
2019-01-20T05:47:12.632Z,42.55
2019-01-20T05:49:43.101Z,45.83
2019-01-20T05:52:13.571Z,42.65
2019-01-20T05:54:43.397Z,41.08
2019-01-20T05:57:13.751Z,34.75
2019-01-20T05:59:44.174Z,34.05
2019-01-20T06:02:14.676Z,32.13
2019-01-20T06:04:44.941Z,40.17
2019-01-20T06:07:15.455Z,38.83
2019-01-20T06:09:45.825Z,39.20
2019-01-20T06:12:16.178Z,45.15
2019-01-20T06:14:46.646Z,48.38
2019-01-20T06:17:17.015Z,44.33
2019-01-20T06:19:47.448Z,52.10
2019-01-20T06:22:17.703Z,57.30
2019-01-20T06:24:48.048Z,49.10
2019-01-20T06:27:18.925Z,45.55
2019-01-20T06:29:49.615Z,48.90
2019-01-20T06:32:20.091Z,47.73
2019-01-20T06:34:50.702Z,42.75
2019-01-20T06:37:21.043Z,41.48
2019-01-20T06:39:50.801Z,51.77
2019-01-20T06:42:21.134Z,54.67
2019-01-20T06:44:51.618Z,55.58
2019-01-20T06:47:22.131Z,47.85
2019-01-20T06:49:52.540Z,39.27
2019-01-20T06:52:22.999Z,51.45
2019-01-20T06:54:55.003Z,59.63
2019-01-20T06:57:25.479Z,48.08
2019-01-20T06:59:55.808Z,45.25
2019-01-20T07:02:26.103Z,49.65
2019-01-20T07:04:56.719Z,74.22
2019-01-20T07:07:27.194Z,93.90
2019-01-20T07:09:57.723Z,84.17
2019-01-20T07:12:28.136Z,49.63
2019-01-20T07:14:58.649Z,45.30
2019-01-20T07:17:28.955Z,87.08
2019-01-20T07:19:59.476Z,69.60
2019-01-20T07:22:29.958Z,71.07
2019-01-20T07:25:00.264Z,67.62
2019-01-20T07:27:30.711Z,50.45
2019-01-20T07:30:01.100Z,50.28
2019-01-20T07:32:31.527Z,58.10
2019-01-20T07:35:01.865Z,59.50
2019-01-20T07:37:32.766Z,60.55
2019-01-20T07:40:03.047Z,68.92
2019-01-20T07:42:33.480Z,56.92
2019-01-20T07:45:04.102Z,53.33
2019-01-20T07:47:34.863Z,63.45
2019-01-20T07:50:06.420Z,54.30
2019-01-20T07:52:36.713Z,62.23
2019-01-20T07:55:09.475Z,51.55
2019-01-20T07:57:39.777Z,45.70
2019-01-20T08:00:11.018Z,46.35
2019-01-20T08:02:41.415Z,54.95
2019-01-20T08:05:12.088Z,56.13
2019-01-20T08:07:42.328Z,63.08
2019-01-20T08:10:16.371Z,57.00
2019-01-20T08:12:46.744Z,55.50
2019-01-20T08:15:17.460Z,54.53
2019-01-20T08:17:47.916Z,56.18
2019-01-20T08:20:18.448Z,55.48
2019-01-20T08:22:49.000Z,55.92
2019-01-20T08:25:19.424Z,53.48
2019-01-20T08:30:26.387Z,53.95
2019-01-20T08:32:56.708Z,51.60
2019-01-20T08:35:27.100Z,51.90
2019-01-20T08:37:57.515Z,49.10
2019-01-20T08:40:30.131Z,48.80
2019-01-20T08:43:00.773Z,53.52
2019-01-20T08:47:40.155Z,49.20
2019-01-20T08:50:13.140Z,47.75
2019-01-20T08:52:43.249Z,71.95
2019-01-20T08:55:14.065Z,64.12
2019-01-20T08:57:43.705Z,52.48
2019-01-20T09:00:16.452Z,41.00
2019-01-20T09:02:46.959Z,46.02
2019-01-20T09:05:17.537Z,53.33
2019-01-20T09:07:48.277Z,47.78
2019-01-20T09:10:24.674Z,54.13
2019-01-20T09:12:55.230Z,54.08
2019-01-20T09:15:25.716Z,56.73
2019-01-20T09:17:56.155Z,59.67
2019-01-20T09:20:26.600Z,65.35
2019-01-20T09:22:57.073Z,68.05
2019-01-20T09:25:27.504Z,65.28
2019-01-20T09:27:57.955Z,62.65
2019-01-20T09:30:28.476Z,63.02
2019-01-20T09:32:58.861Z,64.60
2019-01-20T09:35:29.186Z,62.83
2019-01-20T09:37:59.575Z,67.42
2019-01-20T09:40:29.981Z,62.30
2019-01-20T09:43:00.423Z,57.10
2019-01-20T09:45:31.210Z,60.85
2019-01-20T09:48:01.828Z,56.90
2019-01-20T09:50:32.195Z,57.58
2019-01-20T09:53:01.932Z,60.60
2019-01-20T09:55:34.000Z,65.40
2019-01-20T09:58:04.319Z,68.07
2019-01-20T10:00:34.062Z,71.70
2019-01-20T10:03:04.060Z,69.03
2019-01-20T10:05:34.297Z,67.03
2019-01-20T10:08:04.795Z,65.47
2019-01-20T10:10:35.371Z,63.10
2019-01-20T10:13:06.011Z,62.37
2019-01-20T10:15:36.373Z,62.67
2019-01-20T10:18:06.820Z,62.87
2019-01-20T10:20:36.519Z,59.20
2019-01-20T10:23:06.849Z,55.13
2019-01-20T10:25:37.141Z,64.63
2019-01-20T10:28:09.248Z,63.67
2019-01-20T10:30:39.612Z,64.17
2019-01-20T10:33:10.073Z,60.60
2019-01-20T10:35:43.992Z,63.30
2019-01-20T10:38:14.481Z,63.77
2019-01-20T10:40:44.888Z,58.27
2019-01-20T10:43:15.417Z,59.00
2019-01-20T10:45:45.761Z,60.57
2019-01-20T10:48:16.909Z,57.63
2019-01-20T10:50:47.287Z,57.67
2019-01-20T10:53:17.664Z,58.97
2019-01-20T10:55:48.410Z,60.40
2019-01-20T10:58:18.916Z,67.57
2019-01-20T11:00:49.393Z,61.63
2019-01-20T11:03:19.823Z,67.77
2019-01-20T11:05:50.207Z,71.23
2019-01-20T11:08:20.817Z,70.97
2019-01-20T11:10:51.002Z,68.10
2019-01-20T11:13:21.548Z,65.07
2019-01-20T11:16:22.285Z,65.43
2019-01-20T11:18:52.935Z,59.93
2019-01-20T11:21:23.238Z,60.37
2019-01-20T11:23:53.643Z,59.53
2019-01-20T11:26:24.119Z,59.03
2019-01-20T11:28:54.640Z,60.87
2019-01-20T11:31:25.041Z,63.77
2019-01-20T11:33:55.464Z,66.87
2019-01-20T11:36:25.669Z,59.17
2019-01-20T11:38:56.225Z,61.53
2019-01-20T11:41:26.591Z,57.97
2019-01-20T11:43:56.912Z,57.70
2019-01-20T11:46:27.243Z,56.90
2019-01-20T11:48:57.580Z,50.63
2019-01-20T11:51:27.888Z,45.97
2019-01-20T11:53:58.223Z,43.90
2019-01-20T11:56:29.027Z,45.30
2019-01-20T11:58:59.491Z,51.50
2019-01-20T12:01:29.901Z,56.73
2019-01-20T12:04:00.350Z,49.93
2019-01-20T12:06:31.017Z,47.87
2019-01-20T12:09:01.308Z,50.93
2019-01-20T12:11:31.015Z,53.83
2019-01-20T12:14:01.296Z,62.07
2019-01-20T12:16:31.644Z,66.67
2019-01-20T12:19:02.131Z,66.53
2019-01-20T12:21:32.353Z,69.70
2019-01-20T12:24:02.874Z,69.60
2019-01-20T12:26:33.401Z,65.10
2019-01-20T12:29:03.824Z,65.93
2019-01-20T12:31:34.295Z,68.73
2019-01-20T12:34:04.955Z,68.37
2019-01-20T12:36:35.455Z,62.97
2019-01-20T12:39:08.052Z,56.57
2019-01-20T12:41:38.463Z,58.43
2019-01-20T12:44:08.976Z,59.23
2019-01-20T12:46:39.333Z,62.57
2019-01-20T12:49:09.787Z,50.60
2019-01-20T12:51:40.227Z,62.63
2019-01-20T12:54:10.449Z,63.87
2019-01-20T12:56:41.125Z,64.63
2019-01-20T12:59:11.616Z,64.90
2019-01-20T13:01:42.204Z,61.37
2019-01-20T13:04:12.584Z,49.83
2019-01-20T13:06:42.913Z,46.70
2019-01-20T13:09:13.595Z,44.63
2019-01-20T13:11:43.317Z,43.93
2019-01-20T13:14:13.696Z,28.40
2019-01-20T13:16:44.009Z,43.87
2019-01-20T13:19:14.597Z,51.33
2019-01-20T13:21:44.876Z,33.87
2019-01-20T13:24:15.452Z,30.73
2019-01-20T13:26:45.889Z,20.43
2019-01-20T13:29:16.284Z,22.50
2019-01-20T13:31:46.736Z,26.57
2019-01-20T13:34:17.067Z,39.57
2019-01-20T13:36:47.208Z,26.73
2019-01-20T13:39:17.821Z,29.00
2019-01-20T13:41:48.279Z,21.53
2019-01-20T13:44:18.667Z,18.20
2019-01-20T13:46:49.096Z,33.57
2019-01-20T13:49:19.544Z,33.33
2019-01-20T13:51:50.993Z,33.47
2019-01-20T13:54:21.501Z,34.53
2019-01-20T13:56:51.902Z,35.40
2019-01-20T13:59:22.259Z,32.27
2019-01-20T14:01:52.576Z,27.60
2019-01-20T14:04:24.085Z,35.47
2019-01-20T14:06:54.495Z,33.03
2019-01-20T14:09:24.855Z,37.43
2019-01-20T14:11:55.203Z,35.70
2019-01-20T14:14:25.849Z,37.50
2019-01-20T14:16:56.222Z,44.43
2019-01-20T14:19:26.558Z,40.37
2019-01-20T14:21:56.263Z,43.40
2019-01-20T14:24:26.651Z,51.73
2019-01-20T14:26:57.145Z,34.43
2019-01-20T14:29:27.573Z,31.23
2019-01-20T14:31:57.939Z,36.23
2019-01-20T14:34:28.323Z,35.17
2019-01-20T14:36:58.654Z,56.67
2019-01-20T14:39:29.020Z,51.07
2019-01-20T14:41:59.411Z,55.23
2019-01-20T14:44:29.898Z,30.73
2019-01-20T14:47:00.249Z,28.83
2019-01-20T14:49:30.787Z,30.40
2019-01-20T14:52:01.309Z,31.50
2019-01-20T14:54:31.661Z,23.57
2019-01-20T14:57:02.025Z,29.73
2019-01-20T14:59:32.315Z,29.30
2019-01-20T15:02:02.576Z,30.93
2019-01-20T15:04:32.929Z,30.43
2019-01-20T15:07:13.632Z,30.07
2019-01-20T15:09:44.052Z,31.43
2019-01-20T15:12:14.624Z,33.07
2019-01-20T15:14:44.976Z,31.87
2019-01-20T15:17:15.504Z,31.13
2019-01-20T15:19:45.953Z,27.23
2019-01-20T15:22:16.532Z,33.70
2019-01-20T15:24:46.271Z,32.90
2019-01-20T15:27:16.833Z,39.90
2019-01-20T15:29:47.286Z,48.92
2019-01-20T15:32:17.654Z,40.13
2019-01-20T15:34:47.939Z,34.17
2019-01-20T15:37:18.318Z,35.63
2019-01-20T15:39:48.908Z,49.77
2019-01-20T15:42:19.353Z,42.77
2019-01-20T15:44:49.815Z,48.73
2019-01-20T15:47:20.213Z,39.40
2019-01-20T15:49:50.531Z,44.77
2019-01-20T15:52:20.823Z,33.73
2019-01-20T15:54:51.190Z,21.75
2019-01-20T15:57:21.655Z,36.93
2019-01-20T15:59:52.060Z,35.68
2019-01-20T16:02:22.348Z,37.65
2019-01-20T16:04:52.870Z,40.20
2019-01-20T16:07:23.284Z,44.18
2019-01-20T16:09:53.659Z,32.55
2019-01-20T16:12:24.139Z,22.77
2019-01-20T16:14:53.934Z,51.10
2019-01-20T16:17:24.628Z,50.23
2019-01-20T16:19:55.100Z,39.48
2019-01-20T16:22:25.566Z,33.28
2019-01-20T16:24:56.108Z,32.60
2019-01-20T16:27:26.493Z,35.08
2019-01-20T16:29:57.080Z,46.90
2019-01-20T16:32:27.552Z,50.67
2019-01-20T16:34:58.117Z,53.63
2019-01-20T16:37:28.582Z,49.65
2019-01-20T16:39:59.270Z,43.10
2019-01-20T16:42:29.743Z,56.73
2019-01-20T16:45:00.101Z,60.63
2019-01-20T16:47:30.510Z,68.65
2019-01-20T16:50:01.154Z,65.62
2019-01-20T16:52:31.547Z,74.92
2019-01-20T16:55:02.136Z,75.60
2019-01-20T16:57:32.607Z,117.85
2019-01-20T17:00:02.988Z,89.35
2019-01-20T17:02:33.488Z,77.85
2019-01-20T17:05:04.015Z,95.42
2019-01-20T17:07:34.166Z,89.40
2019-01-20T17:10:04.961Z,96.25
2019-01-20T17:12:35.327Z,104.10
2019-01-20T17:15:06.783Z,80.67
2019-01-20T17:17:37.172Z,67.17
2019-01-20T17:20:08.449Z,66.70
2019-01-20T17:22:38.942Z,50.40
2019-01-20T17:25:10.021Z,62.43
2019-01-20T17:27:40.364Z,72.10
2019-01-20T17:30:13.942Z,74.15
2019-01-20T17:32:44.368Z,70.03
2019-01-20T17:35:14.797Z,55.70
2019-01-20T17:37:45.099Z,67.45
2019-01-20T17:40:17.917Z,72.03
2019-01-20T17:42:48.128Z,64.22
2019-01-20T17:45:21.483Z,66.15
2019-01-20T17:47:51.168Z,61.58
2019-01-20T17:50:23.809Z,75.52
2019-01-20T17:52:54.339Z,72.65
2019-01-20T17:55:24.759Z,73.50
2019-01-20T17:57:55.340Z,69.72
2019-01-20T18:00:31.666Z,72.32
2019-01-20T18:03:01.984Z,49.08
2019-01-20T18:05:32.363Z,69.45
2019-01-20T18:08:02.170Z,55.43
2019-01-20T18:10:32.632Z,59.27
2019-01-20T18:13:03.180Z,75.83
2019-01-20T18:15:33.701Z,55.67
2019-01-20T18:18:04.177Z,49.83
2019-01-20T18:20:34.656Z,58.00
2019-01-20T18:23:05.099Z,63.75
2019-01-20T18:25:35.920Z,48.45
2019-01-20T18:28:06.520Z,38.02
2019-01-20T18:30:36.898Z,38.55
2019-01-20T18:33:07.711Z,69.72
2019-01-20T18:35:37.975Z,57.40
2019-01-20T18:38:08.361Z,59.48
2019-01-20T18:40:38.917Z,54.55
2019-01-20T18:43:09.384Z,61.53
2019-01-20T18:45:39.592Z,64.10
2019-01-20T18:48:09.904Z,49.70
2019-01-20T18:50:40.279Z,51.20
2019-01-20T18:53:10.757Z,83.33
2019-01-20T18:55:41.278Z,57.62
2019-01-20T18:58:11.567Z,71.07
2019-01-20T19:00:45.744Z,76.55
2019-01-20T19:03:15.486Z,54.55
2019-01-20T19:05:45.799Z,47.20
2019-01-20T19:08:15.524Z,72.45
2019-01-20T19:10:46.012Z,41.75
2019-01-20T19:13:15.748Z,78.83
2019-01-20T19:15:46.060Z,76.17
2019-01-20T19:18:19.261Z,82.40
2019-01-20T19:20:47.044Z,74.20
2019-01-20T19:23:17.543Z,67.17
2019-01-20T19:25:47.134Z,83.10
2019-01-20T19:28:16.826Z,87.95
2019-01-20T19:30:47.493Z,82.53
2019-01-20T19:33:17.882Z,79.12
2019-01-20T19:35:48.600Z,81.20
2019-01-20T19:38:19.231Z,90.03
2019-01-20T19:40:50.850Z,77.78
2019-01-20T19:43:20.746Z,81.60
2019-01-20T19:45:51.192Z,71.90
2019-01-20T19:48:21.715Z,93.20
2019-01-20T19:50:52.660Z,67.47
2019-01-20T19:53:23.370Z,70.45
2019-01-20T19:55:53.831Z,55.38
2019-01-20T19:58:24.340Z,51.53
2019-01-20T20:00:54.187Z,75.17
2019-01-20T20:03:24.784Z,72.82
2019-01-20T20:05:54.728Z,78.07
2019-01-20T20:08:25.316Z,57.33
2019-01-20T20:10:55.761Z,66.85
2019-01-20T20:13:26.249Z,68.47
2019-01-20T20:15:56.803Z,69.45
2019-01-20T20:18:26.831Z,42.50
2019-01-20T20:20:56.924Z,61.02
2019-01-20T20:23:27.151Z,59.27
2019-01-20T20:25:57.608Z,52.83
2019-01-20T20:28:28.338Z,52.60
2019-01-20T20:30:58.875Z,52.45
2019-01-20T20:33:29.011Z,64.58
2019-01-20T20:35:59.612Z,57.08
2019-01-20T20:38:30.059Z,38.28
2019-01-20T20:41:00.522Z,37.03
2019-01-20T20:43:30.704Z,33.80
2019-01-20T20:46:01.468Z,60.67
2019-01-20T20:49:06.384Z,50.78
2019-01-20T20:51:36.903Z,41.70
2019-01-20T20:54:07.299Z,41.68
2019-01-20T20:56:37.448Z,51.83
2019-01-20T20:59:07.492Z,58.30
2019-01-20T21:01:37.634Z,44.85
2019-01-20T21:04:07.785Z,34.15
2019-01-20T21:06:37.961Z,28.83
2019-01-20T21:09:09.523Z,49.45
2019-01-20T21:11:39.967Z,63.23
2019-01-20T21:14:10.242Z,41.60
2019-01-20T21:16:40.663Z,64.55
2019-01-20T21:19:11.230Z,53.52
2019-01-20T21:21:41.679Z,58.00
2019-01-20T21:24:12.138Z,63.13
2019-01-20T21:26:44.494Z,44.65
2019-01-20T21:29:13.040Z,42.70
2019-01-20T21:31:43.619Z,54.38
2019-01-20T21:34:14.147Z,46.77
2019-01-20T21:36:44.462Z,50.00
2019-01-20T21:39:14.873Z,63.92
2019-01-20T21:41:45.212Z,62.43
2019-01-20T21:44:15.727Z,48.83
2019-01-20T21:46:46.189Z,57.05
2019-01-20T21:49:16.570Z,59.33
2019-01-20T21:51:46.421Z,61.02
2019-01-20T21:54:16.812Z,44.33
2019-01-20T21:56:47.216Z,57.73
2019-01-20T21:59:17.748Z,60.17
2019-01-20T22:01:48.128Z,64.80
2019-01-20T22:04:18.479Z,63.65
2019-01-20T22:06:49.249Z,62.33
2019-01-20T22:09:19.288Z,62.45
2019-01-20T22:11:49.730Z,57.62
2019-01-20T22:14:19.856Z,56.60
2019-01-20T22:16:52.778Z,60.90
2019-01-20T22:19:20.132Z,60.65
2019-01-20T22:21:50.235Z,59.95
2019-01-20T22:24:20.736Z,62.00
2019-01-20T22:26:50.855Z,62.27
2019-01-20T22:29:20.985Z,74.60
2019-01-20T22:31:51.537Z,63.98
2019-01-20T22:34:22.032Z,61.35
2019-01-20T22:36:52.459Z,56.35
2019-01-20T22:39:22.849Z,62.23
2019-01-20T22:41:53.284Z,62.25
2019-01-20T22:44:23.711Z,63.58
2019-01-20T22:46:59.988Z,57.23
2019-01-20T22:49:24.610Z,56.63
2019-01-20T22:51:55.395Z,61.02
2019-01-20T22:54:25.816Z,58.90
2019-01-20T22:56:55.622Z,55.38
2019-01-20T22:59:25.850Z,51.08
2019-01-20T23:01:56.416Z,59.40
2019-01-20T23:04:26.602Z,55.10
2019-01-20T23:06:56.386Z,57.45
2019-01-20T23:09:26.775Z,55.95
2019-01-20T23:11:58.718Z,56.98
2019-01-20T23:14:27.730Z,63.02
2019-01-20T23:16:58.111Z,61.48
2019-01-20T23:19:28.585Z,60.65
2019-01-20T23:21:59.080Z,55.38
2019-01-20T23:24:29.480Z,58.42
2019-01-20T23:26:59.963Z,58.70
2019-01-20T23:29:30.184Z,61.92
2019-01-20T23:32:00.587Z,54.13
2019-01-20T23:34:30.934Z,59.38
2019-01-20T23:37:01.435Z,62.03
2019-01-20T23:39:31.892Z,58.90
2019-01-20T23:42:02.421Z,55.83
2019-01-20T23:44:32.888Z,59.03
2019-01-20T23:47:03.507Z,63.20
2019-01-20T23:49:33.786Z,64.50
2019-01-20T23:52:04.286Z,67.08
2019-01-20T23:54:34.695Z,59.38
2019-01-20T23:57:05.092Z,62.78
2019-01-20T23:59:35.415Z,64.12
